Time;durP1;ratioP1;P1;durP2;ratioP2;P2;SDS_P1;SDS_P2;PMS_P1;PMS_P2;Temp;Humidity;BMP_temperature;BMP_pressure;BME280_temperature;BME280_humidity;BME280_pressure;Samples;Min_cycle;Max_cycle;Signal;HPM_P1;HPM_P2
2023/05/21 00:01:15;;;;;;;0.00;0.00;;;;;;;10.58;65.17;100990.38;6142957;23;20327;-77
2023/05/21 00:03:54;;;;;;;0.05;0.05;;;;;;;10.54;65.67;100994.69;6123256;23;20105;-79
2023/05/21 00:06:22;;;;;;;0.00;0.00;;;;;;;10.67;65.72;100998.97;6125097;23;20078;-76
2023/05/21 00:08:47;;;;;;;0.00;0.00;;;;;;;10.60;65.85;101000.00;6147325;23;20129;-76
2023/05/21 00:11:13;;;;;;;0.00;0.00;;;;;;;10.41;65.70;100990.41;6124452;23;20027;-76
2023/05/21 00:13:38;;;;;;;0.10;0.10;;;;;;;10.37;65.70;101005.66;6145337;23;20009;-76
2023/05/21 00:16:04;;;;;;;0.05;0.05;;;;;;;10.35;66.01;101014.09;6096431;23;20059;-77
2023/05/21 00:18:33;;;;;;;0.00;0.00;;;;;;;10.23;66.53;101005.97;6118934;23;20018;-77
2023/05/21 00:21:01;;;;;;;0.00;0.00;;;;;;;10.14;66.59;101008.28;6101447;23;20114;-77
2023/05/21 00:23:29;;;;;;;0.00;0.00;;;;;;;10.03;67.10;100989.25;6122479;23;20014;-77
2023/05/21 00:25:55;;;;;;;0.00;0.00;;;;;;;9.97;67.35;100991.06;6148958;23;20005;-76
2023/05/21 00:28:27;;;;;;;0.00;0.00;;;;;;;10.12;67.35;101015.09;6122745;23;20029;-75
2023/05/21 00:30:53;;;;;;;0.00;0.00;;;;;;;10.00;67.77;101009.69;6148907;23;20010;-76
2023/05/21 00:33:21;;;;;;;0.03;0.03;;;;;;;10.00;68.10;101003.41;6124644;23;20063;-77
2023/05/21 00:35:49;;;;;;;0.00;0.00;;;;;;;9.86;68.79;100992.81;6145043;23;20004;-75
2023/05/21 00:38:17;;;;;;;0.00;0.00;;;;;;;9.96;68.18;101012.09;6148966;23;20014;-77
2023/05/21 00:40:53;;;;;;;0.00;0.00;;;;;;;9.76;69.05;100976.25;6144569;23;20005;-77
2023/05/21 00:43:18;;;;;;;0.00;0.00;;;;;;;9.88;68.78;101009.75;6125703;23;20010;-78
2023/05/21 00:45:45;;;;;;;0.00;0.00;;;;;;;9.87;69.04;101002.66;6121959;23;20717;-77
2023/05/21 00:48:11;;;;;;;0.00;0.00;;;;;;;9.86;69.28;101016.56;6124394;23;20024;-77
2023/05/21 00:50:40;;;;;;;0.00;0.00;;;;;;;9.73;69.60;101010.31;6120195;23;20010;-76
2023/05/21 00:53:14;;;;;;;0.00;0.00;;;;;;;9.66;69.60;101011.56;6125639;23;20424;-78
2023/05/21 00:55:40;;;;;;;0.10;0.10;;;;;;;9.57;69.70;100990.09;6146544;23;20001;-76
2023/05/21 00:58:08;;;;;;;0.03;0.03;;;;;;;9.63;70.74;101001.13;6149214;23;20024;-77
2023/05/21 01:00:36;;;;;;;0.00;0.00;;;;;;;9.67;69.91;101007.78;6124088;23;20462;-75
2023/05/21 01:03:10;;;;;;;0.00;0.00;;;;;;;9.63;70.48;100995.69;6143764;23;20001;-75
2023/05/21 01:05:37;;;;;;;0.00;0.00;;;;;;;9.55;70.85;100991.41;6148473;23;20055;-76
2023/05/21 01:08:03;;;;;;;0.00;0.00;;;;;;;9.50;70.61;100989.44;6145724;23;20697;-76
2023/05/21 01:10:31;;;;;;;0.00;0.00;;;;;;;9.48;71.01;100988.84;6145001;23;20044;-76
2023/05/21 01:12:59;;;;;;;0.00;0.00;;;;;;;9.34;71.67;100971.13;6148028;23;20006;-76
2023/05/21 01:15:26;;;;;;;0.00;0.00;;;;;;;9.50;71.64;101007.72;6119536;23;20001;-76
2023/05/21 01:17:53;;;;;;;0.00;0.00;;;;;;;9.33;71.94;100980.38;6146925;23;20001;-76
2023/05/21 01:20:19;;;;;;;0.00;0.00;;;;;;;9.40;72.11;100991.97;6119820;23;20318;-77
2023/05/21 01:22:54;;;;;;;0.05;0.05;;;;;;;9.48;72.31;101007.16;6147938;23;20367;-76
2023/05/21 01:25:24;;;;;;;0.00;0.00;;;;;;;9.29;72.81;100996.41;6141355;23;20078;-76
2023/05/21 01:27:50;;;;;;;0.00;0.00;;;;;;;9.11;72.78;100991.13;6146909;22;20250;-75
2023/05/21 01:30:17;;;;;;;0.10;0.10;;;;;;;9.05;73.03;100982.03;6144982;23;20400;-76
2023/05/21 01:32:49;;;;;;;0.00;0.00;;;;;;;9.15;73.42;101014.16;6122694;23;20036;-76
2023/05/21 01:35:27;;;;;;;0.00;0.00;;;;;;;8.96;73.87;100989.75;6145554;23;20020;-76
2023/05/21 01:38:13;;;;;;;0.00;0.00;;;;;;;9.14;73.99;101015.22;6145834;23;20016;-77
2023/05/21 01:40:45;;;;;;;0.00;0.00;;;;;;;9.03;74.35;101006.00;6145597;23;20008;-73
2023/05/21 01:43:14;;;;;;;0.10;0.10;;;;;;;9.06;74.94;101019.97;6146422;23;20001;-76
2023/05/21 01:45:45;;;;;;;0.00;0.00;;;;;;;9.07;74.95;101010.72;6146686;23;20014;-76
2023/05/21 01:48:11;;;;;;;0.00;0.00;;;;;;;9.04;74.97;101005.75;6149996;22;20012;-74
2023/05/21 01:50:39;;;;;;;0.10;0.10;;;;;;;9.14;76.34;101016.06;6142852;23;20324;-75
2023/05/21 01:53:05;;;;;;;0.00;0.00;;;;;;;9.00;75.85;101001.03;6148739;23;20026;-75
2023/05/21 01:55:31;;;;;;;0.00;0.00;;;;;;;8.87;75.97;100997.47;6149417;22;20632;-78
2023/05/21 01:57:58;;;;;;;0.00;0.00;;;;;;;8.88;76.54;100996.44;6120607;23;20100;-77
2023/05/21 02:00:36;;;;;;;0.10;0.10;;;;;;;8.78;76.41;100985.31;6150360;23;20005;-78
2023/05/21 02:03:01;;;;;;;0.00;0.00;;;;;;;8.68;76.01;100985.09;6145798;23;20002;-76
2023/05/21 02:05:29;;;;;;;0.00;0.00;;;;;;;8.62;76.81;100983.31;6124175;23;20017;-77
2023/05/21 02:07:55;;;;;;;0.00;0.00;;;;;;;8.65;77.26;101001.94;6125193;23;20331;-77
2023/05/21 02:10:23;;;;;;;0.00;0.00;;;;;;;8.65;77.62;101001.94;6147412;22;20016;-77
2023/05/21 02:12:58;;;;;;;0.00;0.00;;;;;;;8.62;77.69;101002.41;6125278;23;20100;-77
2023/05/21 02:15:24;;;;;;;0.00;0.00;;;;;;;8.50;78.48;100988.78;6147231;23;20009;-77
2023/05/21 02:17:50;;;;;;;0.00;0.00;;;;;;;8.63;77.77;101012.22;6152426;23;20005;-78
2023/05/21 02:20:24;;;;;;;0.00;0.00;;;;;;;8.56;78.65;100998.72;6123127;23;20631;-77
2023/05/21 02:22:49;;;;;;;0.00;0.00;;;;;;;8.55;78.53;100986.97;6126743;23;20131;-77
2023/05/21 02:25:19;;;;;;;0.00;0.00;;;;;;;8.51;78.42;100985.81;6147249;23;20021;-78
2023/05/21 02:27:45;;;;;;;0.00;0.00;;;;;;;8.44;78.57;100996.03;6145704;23;20013;-78
2023/05/21 02:30:13;;;;;;;0.00;0.00;;;;;;;8.34;79.20;100987.59;6092184;23;20017;-78
2023/05/21 02:32:41;;;;;;;0.00;0.00;;;;;;;8.30;78.42;100989.13;6143752;23;20063;-78
2023/05/21 02:35:08;;;;;;;0.10;0.10;;;;;;;8.12;79.15;100971.81;6146996;23;20055;-77
2023/05/21 02:37:34;;;;;;;0.00;0.00;;;;;;;8.15;79.41;100987.69;6141612;23;20009;-77
2023/05/21 02:40:02;;;;;;;0.00;0.00;;;;;;;8.10;79.54;100982.09;6144811;23;20013;-77
2023/05/21 02:42:28;;;;;;;0.00;0.00;;;;;;;8.04;79.19;100983.06;6119388;23;20361;-77
2023/05/21 02:44:54;;;;;;;0.00;0.00;;;;;;;7.96;79.08;100973.34;6144276;22;20044;-76
2023/05/21 02:47:21;;;;;;;0.10;0.10;;;;;;;8.01;79.16;100978.06;6115621;23;20444;-77
2023/05/21 02:49:48;;;;;;;0.00;0.00;;;;;;;7.99;79.75;100983.75;6140557;23;20005;-77
2023/05/21 02:52:14;;;;;;;0.00;0.00;;;;;;;7.96;79.50;100980.69;6115838;23;20005;-78
2023/05/21 02:54:39;;;;;;;0.00;0.00;;;;;;;8.02;79.43;100990.63;6120563;23;20020;-77
2023/05/21 02:57:04;;;;;;;0.00;0.00;;;;;;;8.01;79.69;100989.78;6115722;23;20444;-77
2023/05/21 02:59:30;;;;;;;0.10;0.10;;;;;;;7.91;79.22;100975.09;6121318;23;20022;-77
2023/05/21 03:01:55;;;;;;;0.00;0.00;;;;;;;7.96;79.58;100997.03;6145081;23;20092;-77
2023/05/21 03:04:21;;;;;;;0.00;0.00;;;;;;;7.93;79.26;100983.84;6163989;23;20073;-77
2023/05/21 03:06:47;;;;;;;0.00;0.00;;;;;;;7.90;79.18;100989.78;6117962;23;20006;-77
2023/05/21 03:09:13;;;;;;;0.05;0.05;;;;;;;7.88;79.11;100986.47;6141200;22;20917;-77
2023/05/21 03:11:38;;;;;;;0.00;0.00;;;;;;;7.83;79.20;100990.72;6120629;23;20021;-78
2023/05/21 03:14:05;;;;;;;0.00;0.00;;;;;;;7.75;79.53;100988.31;6115179;23;20033;-77
2023/05/21 03:16:33;;;;;;;0.08;0.08;;;;;;;7.69;79.31;100983.81;6120082;23;20010;-77
2023/05/21 03:19:01;;;;;;;0.00;0.00;;;;;;;7.64;79.80;100991.88;6120582;23;20014;-77
2023/05/21 03:21:28;;;;;;;0.00;0.00;;;;;;;7.57;80.27;100980.25;6141148;23;20037;-77
2023/05/21 03:23:57;;;;;;;0.00;0.00;;;;;;;7.54;80.11;100991.59;6121335;23;20055;-77
2023/05/21 03:26:24;;;;;;;0.00;0.00;;;;;;;7.47;80.74;100984.34;6114751;23;20037;-76
2023/05/21 03:28:49;;;;;;;0.00;0.00;;;;;;;7.42;80.31;100965.19;6118383;23;20163;-76
2023/05/21 03:31:15;;;;;;;0.00;0.00;;;;;;;7.55;80.69;100976.91;6090637;23;20093;-76
2023/05/21 03:33:41;;;;;;;0.00;0.00;;;;;;;7.51;80.82;100977.38;6094492;23;20488;-75
2023/05/21 03:36:07;;;;;;;0.00;0.00;;;;;;;7.53;81.07;100979.06;6116927;23;20090;-75
2023/05/21 03:38:32;;;;;;;0.00;0.00;;;;;;;7.53;80.74;100973.59;6093241;23;20037;-77
2023/05/21 03:40:57;;;;;;;0.00;0.00;;;;;;;7.53;80.66;100979.06;6144570;23;20009;-77
2023/05/21 03:43:23;;;;;;;0.00;0.00;;;;;;;7.59;80.27;100970.78;6140187;23;20002;-75
2023/05/21 03:45:48;;;;;;;0.00;0.00;;;;;;;7.56;80.42;100979.41;6222583;23;20009;-75
2023/05/21 03:48:14;;;;;;;0.00;0.00;;;;;;;7.55;80.53;100982.34;6116103;23;20379;-75
2023/05/21 03:50:40;;;;;;;0.03;0.03;;;;;;;7.55;80.44;100979.63;6095427;23;20002;-76
2023/05/21 03:53:05;;;;;;;0.00;0.00;;;;;;;7.49;80.10;100995.84;6096657;23;20380;-77
2023/05/21 03:55:31;;;;;;;0.03;0.03;;;;;;;7.39;80.41;100987.41;6115517;23;20028;-77
2023/05/21 03:57:56;;;;;;;0.00;0.00;;;;;;;7.27;80.15;100981.06;6095401;23;20005;-77
2023/05/21 04:00:21;;;;;;;0.00;0.00;;;;;;;7.28;80.38;100993.63;6093614;23;20584;-78
2023/05/21 04:02:47;;;;;;;0.00;0.00;;;;;;;7.19;80.38;100984.13;6095465;23;20009;-76
2023/05/21 04:05:12;;;;;;;0.00;0.00;;;;;;;7.19;80.60;100984.13;6141545;23;20347;-77
2023/05/21 04:07:38;;;;;;;0.00;0.00;;;;;;;7.21;80.37;100990.16;6120695;23;20529;-76
2023/05/21 04:10:04;;;;;;;0.00;0.00;;;;;;;7.11;81.13;100986.13;6119629;23;20094;-77
2023/05/21 04:12:30;;;;;;;0.10;0.10;;;;;;;7.11;81.02;100990.69;6116068;23;20074;-77
2023/05/21 04:14:55;;;;;;;0.00;0.00;;;;;;;7.04;81.12;100985.38;6096257;23;20017;-79
2023/05/21 04:17:21;;;;;;;0.00;0.00;;;;;;;7.07;80.86;100989.53;6092146;23;20009;-77
2023/05/21 04:19:46;;;;;;;0.00;0.00;;;;;;;7.07;81.23;100992.25;6095278;23;20063;-76
2023/05/21 04:22:12;;;;;;;0.10;0.10;;;;;;;7.12;80.32;101000.53;6092366;23;20014;-77
2023/05/21 04:24:37;;;;;;;0.00;0.00;;;;;;;7.07;80.76;100998.50;6095089;23;20432;-77
2023/05/21 04:27:03;;;;;;;0.00;0.00;;;;;;;7.03;81.06;100999.19;6144864;23;20021;-76
2023/05/21 04:29:29;;;;;;;0.00;0.00;;;;;;;7.05;80.43;101011.47;6115817;23;20006;-76
2023/05/21 04:31:55;;;;;;;0.00;0.00;;;;;;;6.98;80.65;100997.97;6095756;23;20029;-76
2023/05/21 04:34:22;;;;;;;0.00;0.00;;;;;;;6.95;80.71;101000.31;6113298;23;20111;-76
2023/05/21 04:36:48;;;;;;;0.00;0.00;;;;;;;7.02;80.85;100995.63;6120466;23;20025;-76
2023/05/21 04:39:14;;;;;;;0.10;0.10;;;;;;;7.08;80.97;100993.88;6115635;23;20009;-76
2023/05/21 04:41:40;;;;;;;0.00;0.00;;;;;;;7.05;81.17;100984.28;6118281;23;20025;-75
2023/05/21 04:44:07;;;;;;;0.00;0.00;;;;;;;7.16;80.13;100997.13;6143757;23;20530;-75
2023/05/21 04:46:35;;;;;;;0.00;0.00;;;;;;;7.12;80.26;100995.91;6115431;23;20763;-76
2023/05/21 04:49:04;;;;;;;0.00;0.00;;;;;;;7.09;79.62;100990.94;6144077;23;20041;-76
2023/05/21 04:51:30;;;;;;;0.00;0.00;;;;;;;7.18;80.05;100998.78;6117791;23;20078;-75
2023/05/21 04:53:57;;;;;;;0.10;0.10;;;;;;;7.16;80.05;100991.69;6142950;23;20005;-76
2023/05/21 04:56:26;;;;;;;0.00;0.00;;;;;;;7.21;80.51;101003.75;6144562;23;20044;-75
2023/05/21 04:58:53;;;;;;;0.10;0.10;;;;;;;7.22;79.92;100989.94;6115575;23;20412;-76
2023/05/21 05:01:20;;;;;;;0.00;0.00;;;;;;;7.32;79.44;101000.28;6145018;23;20432;-77
2023/05/21 05:03:46;;;;;;;0.00;0.00;;;;;;;7.30;79.80;100988.78;6115194;23;20010;-78
2023/05/21 05:06:12;;;;;;;0.00;0.00;;;;;;;7.31;79.12;100971.41;6119852;23;20045;-77
2023/05/21 05:08:38;;;;;;;0.00;0.00;;;;;;;7.55;79.35;100998.69;6116899;23;20424;-77
2023/05/21 05:11:03;;;;;;;0.03;0.03;;;;;;;7.57;78.73;100991.97;6119705;23;20013;-77
2023/05/21 05:13:29;;;;;;;0.00;0.00;;;;;;;7.71;78.84;100992.59;6119792;23;20020;-76
2023/05/21 05:15:56;;;;;;;0.00;0.00;;;;;;;7.79;78.79;100992.25;6141442;23;20423;-76
2023/05/21 05:18:22;;;;;;;0.00;0.00;;;;;;;7.96;78.04;100999.75;6099255;23;20006;-76
2023/05/21 05:20:47;;;;;;;0.00;0.00;;;;;;;8.04;78.09;101004.84;6142927;23;20092;-76
2023/05/21 05:23:13;;;;;;;0.00;0.00;;;;;;;8.10;77.57;100984.81;6149308;23;20010;-76
2023/05/21 05:25:38;;;;;;;0.03;0.03;;;;;;;8.23;77.63;100988.41;6118240;22;20028;-77
2023/05/21 05:28:03;;;;;;;0.10;0.10;;;;;;;8.33;77.50;100983.19;6146747;23;20339;-77
2023/05/21 05:30:29;;;;;;;0.10;0.10;;;;;;;8.42;77.11;100980.94;6098620;23;20014;-76
2023/05/21 05:32:55;;;;;;;0.00;0.00;;;;;;;8.47;76.81;100984.63;6095131;23;20014;-76
2023/05/21 05:35:20;;;;;;;0.00;0.00;;;;;;;8.58;77.08;100987.59;6123310;23;20325;-77
2023/05/21 05:37:46;;;;;;;0.00;0.00;;;;;;;8.68;77.10;100985.09;6145164;23;19997;-77
2023/05/21 05:40:11;;;;;;;0.00;0.00;;;;;;;8.80;77.02;100977.69;6096387;23;20089;-77
2023/05/21 05:42:39;;;;;;;0.00;0.00;;;;;;;8.83;76.06;100963.56;6121371;23;20013;-76
2023/05/21 05:45:05;;;;;;;0.00;0.00;;;;;;;9.00;76.07;100971.03;6141015;23;19997;-77
2023/05/21 05:47:30;;;;;;;0.10;0.10;;;;;;;9.19;76.11;100975.22;6121420;23;20144;-76
2023/05/21 05:49:56;;;;;;;0.03;0.03;;;;;;;9.31;75.99;100977.88;6092992;23;20067;-76
2023/05/21 05:52:21;;;;;;;0.00;0.00;;;;;;;9.40;75.47;100976.44;6120861;23;20006;-74
2023/05/21 05:54:49;;;;;;;0.00;0.00;;;;;;;9.47;75.65;100970.81;6145224;22;20744;-75
2023/05/21 05:57:15;;;;;;;0.00;0.00;;;;;;;9.72;75.01;100983.25;6117181;23;20006;-76
2023/05/21 05:59:40;;;;;;;0.08;0.08;;;;;;;9.79;74.90;100990.22;6145115;23;20085;-75
2023/05/21 06:02:08;;;;;;;0.10;0.10;;;;;;;9.70;74.73;100958.13;6142296;23;20017;-76
2023/05/21 06:04:33;;;;;;;0.00;0.00;;;;;;;9.98;74.46;100980.97;6146521;23;20033;-76
2023/05/21 06:06:59;;;;;;;0.00;0.00;;;;;;;10.05;73.67;100979.72;6114517;23;20394;-75
2023/05/21 06:09:25;;;;;;;0.00;0.00;;;;;;;10.21;74.36;100983.53;6096472;23;20463;-75
2023/05/21 06:11:51;;;;;;;0.00;0.00;;;;;;;10.30;73.84;100979.28;6143754;22;19998;-77
2023/05/21 06:14:16;;;;;;;0.00;0.00;;;;;;;10.46;73.94;100982.28;6141117;23;20005;-76
2023/05/21 06:16:42;;;;;;;0.00;0.00;;;;;;;10.54;73.54;100970.91;6120096;23;20010;-74
2023/05/21 06:19:07;;;;;;;0.00;0.00;;;;;;;10.78;72.92;100984.34;6091137;23;20016;-74
2023/05/21 06:21:32;;;;;;;0.00;0.00;;;;;;;10.91;72.78;100983.97;6118231;23;20093;-75
2023/05/21 06:23:58;;;;;;;0.00;0.00;;;;;;;10.97;72.15;100974.75;6117406;23;20006;-76
2023/05/21 06:26:24;;;;;;;0.00;0.00;;;;;;;10.99;72.37;100960.81;6121779;23;20010;-81
2023/05/21 06:28:49;;;;;;;0.00;0.00;;;;;;;10.94;72.18;100956.09;6147465;22;20025;-79
2023/05/21 06:31:17;;;;;;;0.00;0.00;;;;;;;11.04;72.20;100981.91;6141716;23;20005;-79
2023/05/21 06:33:48;;;;;;;0.00;0.00;;;;;;;10.97;72.21;100973.91;6144114;23;20039;-80
2023/05/21 06:36:18;;;;;;;0.00;0.00;;;;;;;11.05;72.13;100972.63;6117609;23;20013;-78
2023/05/21 06:38:49;;;;;;;0.00;0.00;;;;;;;11.18;72.55;100988.66;6119915;23;20006;-78
2023/05/21 06:41:14;;;;;;;0.00;0.00;;;;;;;11.34;72.44;100992.41;6097337;23;20714;-77
2023/05/21 06:43:52;;;;;;;;;;;;;;;;;;;;;
2023/05/21 06:46:25;;;;;;;0.00;0.00;;;;;;;11.51;72.56;100989.56;6147471;23;20080;-79
2023/05/21 06:48:51;;;;;;;0.00;0.00;;;;;;;11.51;72.35;100978.63;6120491;23;20010;-79
2023/05/21 06:51:19;;;;;;;0.00;0.00;;;;;;;11.66;72.22;100978.75;6146522;23;20024;-79
2023/05/21 06:53:44;;;;;;;0.10;0.10;;;;;;;11.76;71.46;100977.22;6141444;22;20343;-77
2023/05/21 06:56:10;;;;;;;0.00;0.00;;;;;;;11.83;71.75;100972.34;6118743;23;20014;-78
2023/05/21 06:58:40;;;;;;;0.00;0.00;;;;;;;12.03;71.82;100977.16;6121994;23;20139;-78
2023/05/21 07:01:06;;;;;;;0.00;0.00;;;;;;;12.12;71.07;100972.88;6117602;23;20478;-80
2023/05/21 07:03:37;;;;;;;0.00;0.00;;;;;;;12.25;71.13;100968.84;6120651;23;20005;-79
2023/05/21 07:06:02;;;;;;;0.00;0.00;;;;;;;12.40;71.06;100960.72;6116108;23;20013;-78
2023/05/21 07:08:28;;;;;;;0.00;0.00;;;;;;;12.49;70.26;100957.47;6120929;23;20008;-78
2023/05/21 07:10:55;;;;;;;0.00;0.00;;;;;;;12.71;70.33;100971.84;6121423;23;20009;-78
2023/05/21 07:13:26;;;;;;;0.00;0.00;;;;;;;12.82;70.07;100966.41;6143851;23;20005;-78
2023/05/21 07:15:54;;;;;;;0.00;0.00;;;;;;;12.87;69.47;100953.53;6096623;23;20412;-79
2023/05/21 07:18:19;;;;;;;0.00;0.00;;;;;;;13.02;68.80;100960.97;6143393;23;20012;-78
2023/05/21 07:20:44;;;;;;;0.00;0.00;;;;;;;13.17;68.79;100973.13;6096140;23;20017;-78
2023/05/21 07:23:10;;;;;;;0.00;0.00;;;;;;;13.20;68.61;100961.59;6141544;23;20822;-78
2023/05/21 07:25:38;;;;;;;0.00;0.00;;;;;;;13.29;67.88;100957.22;6119594;23;20009;-79
2023/05/21 07:28:06;;;;;;;0.00;0.00;;;;;;;13.46;67.64;100967.19;6139888;22;20024;-77
2023/05/21 07:30:31;;;;;;;0.00;0.00;;;;;;;13.48;66.89;100953.97;6120108;23;20118;-79
2023/05/21 07:32:57;;;;;;;0.00;0.00;;;;;;;13.64;66.77;100972.16;6146150;23;20001;-78
2023/05/21 07:35:22;;;;;;;0.00;0.00;;;;;;;13.74;66.60;100966.66;6115939;23;20006;-78
2023/05/21 08:37:38;;;;;;;;;;;;;;;;;;;;;
2023/05/21 08:55:22;;;;;;;0.00;0.00;;;;;;;17.74;52.89;100999.06;5838467;24;20083;-79
2023/05/21 08:57:53;;;;;;;0.00;0.00;;;;;;;17.70;51.78;100981.47;5747727;24;20415;-78
2023/05/21 09:00:19;;;;;;;0.00;0.00;;;;;;;17.78;51.42;100989.06;5823573;23;20854;-79
2023/05/21 09:02:45;;;;;;;0.00;0.00;;;;;;;17.84;51.22;100992.56;6086927;23;20087;-78
2023/05/21 09:13:41;;;;;;;;;;;;;;;;;;;;;
2023/05/21 09:16:46;;;;;;;;;;;;;;;;;;;;;
2023/05/21 09:19:12;;;;;;;0.00;0.00;;;;;;;19.01;49.75;100986.88;5861807;24;20084;-77
2023/05/21 09:21:41;;;;;;;0.00;0.00;;;;;;;19.01;48.15;100953.59;5925083;24;20036;-77
2023/05/21 09:24:15;;;;;;;0.00;0.00;;;;;;;19.34;47.26;100989.47;5950684;23;20173;-78
2023/05/21 09:27:04;;;;;;;0.00;0.00;;;;;;;19.45;47.00;100989.22;6032664;23;20015;-76
2023/05/21 09:29:31;;;;;;;0.00;0.00;;;;;;;19.38;46.94;100967.50;6000221;23;20141;-75
2023/05/21 09:32:20;;;;;;;;;;;;;;;;;;;;;
2023/05/21 09:34:56;;;;;;;;;;;;;;;;;;;;;
2023/05/21 09:37:36;;;;;;;0.00;0.00;;;;;;;19.70;46.06;100979.50;5944926;24;20091;-78
2023/05/21 09:40:19;;;;;;;0.00;0.00;;;;;;;19.81;45.36;100977.31;5978467;23;20442;-78
2023/05/21 09:42:50;;;;;;;0.00;0.00;;;;;;;19.88;45.79;100980.47;5998213;23;20018;-79
2023/05/21 09:45:19;;;;;;;0.00;0.00;;;;;;;20.00;45.70;100966.84;6090444;23;19998;-78
2023/05/21 09:47:46;;;;;;;0.00;0.00;;;;;;;20.15;45.47;100957.31;6218522;23;20013;-79
2023/05/21 09:50:30;;;;;;;0.00;0.00;;;;;;;20.34;45.47;100973.75;6112952;23;20504;-76
2023/05/21 09:53:15;;;;;;;0.00;0.00;;;;;;;20.32;44.47;100962.13;6092952;23;20339;-77
2023/05/21 09:55:40;;;;;;;0.00;0.00;;;;;;;20.66;44.59;100987.59;6093638;23;20003;-79
2023/05/21 09:58:07;;;;;;;0.00;0.00;;;;;;;20.71;44.07;100962.50;6066322;23;20006;-81
2023/05/21 10:00:33;;;;;;;0.00;0.00;;;;;;;20.86;43.76;100962.03;6116685;23;20017;-81
2023/05/21 10:03:07;;;;;;;0.00;0.00;;;;;;;21.00;43.46;100967.47;6093590;23;20972;-82
2023/05/21 10:05:35;;;;;;;0.00;0.00;;;;;;;21.10;43.43;100964.38;6090565;23;20042;-79
2023/05/21 10:08:03;;;;;;;0.00;0.00;;;;;;;21.23;42.60;100965.38;6095687;23;20079;-81
2023/05/21 10:10:30;;;;;;;0.00;0.00;;;;;;;21.38;41.79;100975.22;6091463;23;20088;-82
2023/05/21 10:13:07;;;;;;;0.00;0.00;;;;;;;21.41;41.32;100957.88;6098392;23;20025;-81
2023/05/21 10:15:56;;;;;;;0.00;0.00;;;;;;;21.51;41.27;100972.63;6119763;23;20067;-81
2023/05/21 10:18:23;;;;;;;0.00;0.00;;;;;;;21.50;41.63;100943.16;6093592;23;19998;-80
2023/05/21 10:20:52;;;;;;;0.00;0.00;;;;;;;21.73;41.58;100936.28;6093419;23;20005;-81
2023/05/21 10:23:21;;;;;;;0.00;0.00;;;;;;;22.06;41.51;100949.63;6218676;23;20178;-81
2023/05/21 10:25:51;;;;;;;0.00;0.00;;;;;;;22.25;41.16;100945.66;6089577;23;20010;-80
2023/05/21 10:28:21;;;;;;;0.00;0.00;;;;;;;22.59;40.58;100943.91;6239154;22;20018;-80
2023/05/21 10:30:52;;;;;;;0.00;0.00;;;;;;;23.00;39.85;100939.59;6144788;23;20048;-79
2023/05/21 10:33:21;;;;;;;0.00;0.00;;;;;;;23.36;38.69;100938.19;6146876;23;20332;-80
2023/05/21 10:35:52;;;;;;;0.00;0.00;;;;;;;23.96;37.75;100932.41;6119983;23;20036;-79
2023/05/21 10:38:20;;;;;;;0.00;0.00;;;;;;;24.59;35.90;100929.41;6148007;23;20009;-77
2023/05/21 10:40:52;;;;;;;0.00;0.00;;;;;;;25.34;34.75;100936.53;6121072;23;20451;-76
2023/05/21 10:43:32;;;;;;;0.00;0.00;;;;;;;26.69;32.25;100942.56;6141642;23;20052;-78
2023/05/21 10:46:14;;;;;;;0.00;0.00;;;;;;;27.72;29.95;100934.03;6140850;23;20018;-80
2023/05/21 10:48:54;;;;;;;0.00;0.00;;;;;;;28.28;29.42;100938.28;6143428;22;20092;-82
2023/05/21 10:51:54;;;;;;;0.00;0.00;;;;;;;29.85;28.32;100943.78;6150499;22;20014;-76
2023/05/21 10:54:53;;;;;;;0.00;0.00;;;;;;;31.59;26.52;100945.91;6147921;22;19998;-78
2023/05/21 10:57:31;;;;;;;0.00;0.00;;;;;;;32.06;25.22;100941.19;6147258;22;20001;-80
2023/05/21 10:59:57;;;;;;;0.00;0.00;;;;;;;32.34;22.64;100934.78;6148636;23;20001;-78
2023/05/21 11:02:25;;;;;;;0.00;0.00;;;;;;;33.39;22.92;100937.44;6146478;23;20012;-79
2023/05/21 11:05:03;;;;;;;0.00;0.00;;;;;;;34.87;21.16;100911.69;6146810;23;20092;-80
2023/05/21 11:07:57;;;;;;;0.00;0.00;;;;;;;36.02;19.67;100925.66;6145224;23;20391;-80
2023/05/21 11:11:11;;;;;;;;;;;;;;;;;;;;;
2023/05/21 11:13:48;;;;;;;0.00;0.00;;;;;;;37.02;19.02;100909.66;6116873;23;20097;-79
2023/05/21 11:16:24;;;;;;;0.00;0.00;;;;;;;37.25;18.82;100908.00;6119132;23;20016;-77
2023/05/21 11:18:57;;;;;;;0.00;0.00;;;;;;;38.19;18.25;100920.13;6141673;23;20059;-80
2023/05/21 11:21:27;;;;;;;0.00;0.00;;;;;;;38.90;17.80;100899.50;6143704;23;20059;-79
2023/05/21 11:23:55;;;;;;;0.00;0.00;;;;;;;39.56;17.40;100907.78;6139504;23;20017;-80
2023/05/21 11:26:23;;;;;;;0.00;0.00;;;;;;;39.59;16.82;100895.50;6141170;23;20401;-81
2023/05/21 11:29:03;;;;;;;0.00;0.00;;;;;;;40.00;16.94;100905.19;6139789;22;20021;-80
2023/05/21 11:32:00;;;;;;;0.00;0.00;;;;;;;40.90;16.25;100904.19;6141142;23;20010;-80
2023/05/21 11:34:38;;;;;;;0.00;0.00;;;;;;;39.36;15.79;100893.72;6134462;23;20005;-79
2023/05/21 11:37:23;;;;;;;0.00;0.00;;;;;;;37.57;17.21;100897.91;6142399;23;20013;-78
2023/05/21 11:39:53;;;;;;;0.00;0.00;;;;;;;37.95;17.54;100890.97;6139132;23;20097;-79
2023/05/21 11:45:48;;;;;;;;;;;;;;;;;;;;;
2023/05/21 11:48:14;;;;;;;0.00;0.00;;;;;;;37.89;17.52;100890.69;6143910;23;20380;-78
2023/05/21 11:51:01;;;;;;;0.00;0.00;;;;;;;40.29;16.21;100907.09;6141717;22;20010;-81
2023/05/21 11:53:29;;;;;;;0.00;0.00;;;;;;;39.99;15.16;100889.28;6140397;23;20033;-79
2023/05/21 12:14:23;;;;;;;0.00;0.00;;;;;;;36.66;17.01;100861.91;5857640;24;20013;-79
2023/05/21 12:16:51;;;;;;;0.00;0.00;;;;;;;38.20;16.82;100862.63;5888930;23;20033;-78
2023/05/21 12:22:28;;;;;;;0.00;0.00;;;;;;;43.57;13.96;100896.63;6039509;23;20314;-78
2023/05/21 12:25:05;;;;;;;0.00;0.00;;;;;;;44.42;13.03;100859.03;6064805;23;20005;-78
2023/05/21 12:27:38;;;;;;;0.00;0.00;;;;;;;45.08;12.65;100856.34;6139757;22;20005;-79
2023/05/21 12:30:26;;;;;;;0.00;0.00;;;;;;;44.17;12.27;100871.81;6146586;23;20014;-79
2023/05/21 12:33:10;;;;;;;0.00;0.00;;;;;;;41.68;13.57;100833.56;6119466;23;20013;-80
2023/05/21 12:35:47;;;;;;;0.00;0.00;;;;;;;39.10;14.65;100837.25;6143521;23;20328;-78
2023/05/21 12:38:12;;;;;;;0.00;0.00;;;;;;;38.58;15.88;100852.63;6138130;23;20021;-79
2023/05/21 12:40:42;;;;;;;0.00;0.00;;;;;;;41.60;14.22;100835.13;6118689;23;20010;-81
2023/05/21 12:43:07;;;;;;;0.00;0.00;;;;;;;45.07;13.13;100846.91;6136797;23;20012;-78
2023/05/21 12:45:38;;;;;;;0.00;0.00;;;;;;;44.23;11.95;100840.25;6093064;23;20037;-79
2023/05/21 12:48:23;;;;;;;0.00;0.00;;;;;;;39.97;14.00;100846.00;6116940;23;20021;-78
2023/05/21 12:51:14;;;;;;;0.00;0.00;;;;;;;39.19;15.36;100850.09;6118474;23;20018;-79
2023/05/21 12:53:48;;;;;;;0.00;0.00;;;;;;;41.24;14.49;100836.53;6136816;23;20328;-79
2023/05/21 12:56:27;;;;;;;0.00;0.00;;;;;;;39.95;14.31;100825.59;6144226;23;20009;-78
2023/05/21 12:59:12;;;;;;;0.00;0.00;;;;;;;38.13;15.22;100810.56;6115185;23;20100;-78
2023/05/21 13:01:37;;;;;;;0.00;0.00;;;;;;;38.32;15.12;100840.28;6142365;23;20002;-80
2023/05/21 13:04:03;;;;;;;0.00;0.00;;;;;;;37.33;16.02;100838.16;6141250;23;20010;-80
2023/05/21 13:06:38;;;;;;;0.00;0.00;;;;;;;35.60;16.82;100821.44;6118415;23;20009;-79
2023/05/21 13:09:17;;;;;;;;;;;;;;;;;;;;;
2023/05/21 13:11:42;;;;;;;0.00;0.00;;;;;;;41.16;14.75;100853.22;6146217;23;20906;-78
2023/05/21 13:14:08;;;;;;;0.00;0.00;;;;;;;43.84;13.44;100851.72;6139130;23;20092;-78
2023/05/21 13:16:33;;;;;;;0.00;0.00;;;;;;;44.66;12.10;100855.31;6116121;23;20043;-79
2023/05/21 13:18:59;;;;;;;0.00;0.00;;;;;;;45.75;11.78;100861.59;6113599;23;20033;-78
2023/05/21 13:21:24;;;;;;;0.00;0.00;;;;;;;47.00;11.66;100864.75;6141246;23;20005;-77
2023/05/21 13:23:50;;;;;;;0.00;0.00;;;;;;;47.49;10.79;100853.31;6138758;22;20355;-77
2023/05/21 13:26:15;;;;;;;0.00;0.00;;;;;;;48.46;10.61;100851.72;6141413;23;20009;-78
2023/05/21 13:28:41;;;;;;;0.00;0.00;;;;;;;48.68;10.43;100839.38;6114773;23;20025;-78
2023/05/21 13:31:06;;;;;;;0.00;0.00;;;;;;;48.03;9.92;100843.88;6137543;23;20010;-79
2023/05/21 13:33:35;;;;;;;0.00;0.00;;;;;;;47.63;9.85;100844.97;6140633;23;20029;-79
2023/05/21 13:36:00;;;;;;;0.00;0.00;;;;;;;47.31;10.46;100842.88;6138427;23;20002;-77
2023/05/21 13:38:28;;;;;;;0.00;0.00;;;;;;;47.39;10.02;100843.25;6117866;23;20028;-80
2023/05/21 13:40:53;;;;;;;0.00;0.00;;;;;;;47.69;10.00;100843.69;6143334;22;20009;-78